Time;durP1;ratioP1;P1;durP2;ratioP2;P2;SDS_P1;SDS_P2;PMS_P1;PMS_P2;Temp;Humidity;BMP_temperature;BMP_pressure;BME280_temperature;BME280_humidity;BME280_pressure;Samples;Min_cycle;Max_cycle;Signal;HPM_P1;HPM_P2
2022/02/20 00:01:29;;;;;;;7.00;4.33;;;6.10;99.90;;;;;;5078078;28;20507;-62
2022/02/20 00:03:56;;;;;;;4.47;3.20;;;6.10;99.90;;;;;;5073360;28;20467;-62
2022/02/20 00:06:23;;;;;;;13.03;4.00;;;6.10;99.90;;;;;;5073120;28;20490;-62
2022/02/20 00:08:56;;;;;;;8.33;3.67;;;6.10;99.90;;;;;;5069334;28;20459;-61
2022/02/20 00:11:26;;;;;;;8.80;4.10;;;6.10;99.90;;;;;;5064719;28;20465;-62
2022/02/20 00:13:54;;;;;;;8.30;3.80;;;6.20;99.90;;;;;;5079700;28;20462;-61
2022/02/20 00:16:21;;;;;;;12.30;4.20;;;6.20;99.90;;;;;;5079258;28;20891;-62
2022/02/20 00:18:49;;;;;;;11.23;4.77;;;6.20;99.90;;;;;;5079698;28;20465;-62
2022/02/20 00:21:16;;;;;;;7.30;4.17;;;6.20;99.90;;;;;;5067197;28;20477;-61
2022/02/20 00:23:43;;;;;;;8.40;3.93;;;6.20;1.00;;;;;;5077883;28;20439;-61
2022/02/20 00:26:12;;;;;;;9.67;4.03;;;6.20;1.00;;;;;;5077994;28;20491;-60
2022/02/20 00:28:41;;;;;;;8.17;3.60;;;6.20;99.90;;;;;;5079328;28;20489;-61
2022/02/20 00:31:08;;;;;;;6.83;3.50;;;6.20;1.00;;;;;;5069032;28;20465;-60
2022/02/20 00:33:35;;;;;;;6.67;3.37;;;6.10;1.00;;;;;;5059315;28;20584;-60
2022/02/20 00:36:05;;;;;;;8.43;4.03;;;6.10;99.90;;;;;;5059046;28;20484;-60
2022/02/20 00:38:32;;;;;;;8.67;3.57;;;6.10;1.00;;;;;;5078538;28;20461;-59
2022/02/20 00:40:59;;;;;;;6.50;4.20;;;6.10;1.00;;;;;;5077144;28;20579;-60
2022/02/20 00:43:28;;;;;;;7.93;4.10;;;6.10;1.00;;;;;;5079218;28;20886;-60
2022/02/20 00:45:55;;;;;;;8.40;4.13;;;6.00;1.00;;;;;;5078449;28;20493;-60
2022/02/20 00:48:22;;;;;;;15.40;3.87;;;6.00;1.00;;;;;;5073070;28;20910;-60
2022/02/20 00:50:49;;;;;;;10.10;4.63;;;6.00;99.90;;;;;;5078835;28;20894;-60
2022/02/20 00:53:16;;;;;;;10.33;4.17;;;6.00;99.90;;;;;;5077700;28;20469;-60
2022/02/20 00:55:43;;;;;;;6.87;3.83;;;6.00;99.90;;;;;;5078627;28;20461;-58
2022/02/20 00:58:10;;;;;;;7.57;5.40;;;6.00;99.90;;;;;;5077874;28;20957;-60
2022/02/20 01:00:39;;;;;;;9.97;4.77;;;5.90;99.90;;;;;;5078210;28;20527;-60
2022/02/20 01:03:08;;;;;;;14.80;5.73;;;5.70;99.90;;;;;;5078261;28;20515;-60
2022/02/20 01:05:37;;;;;;;18.40;6.43;;;5.70;99.90;;;;;;5078584;28;20534;-60
2022/02/20 01:08:05;;;;;;;6.50;5.37;;;5.60;99.90;;;;;;5077829;28;20509;-59
2022/02/20 01:10:33;;;;;;;6.83;5.10;;;5.50;99.90;;;;;;5078257;28;20465;-59
2022/02/20 01:13:01;;;;;;;6.93;4.93;;;5.40;99.90;;;;;;5078026;28;20457;-60
2022/02/20 01:15:28;;;;;;;10.87;4.93;;;5.30;99.90;;;;;;5078187;28;20465;-60
2022/02/20 01:17:57;;;;;;;6.57;4.50;;;5.30;99.90;;;;;;5078197;28;20493;-59
2022/02/20 01:20:24;;;;;;;9.83;5.17;;;5.30;99.90;;;;;;5088045;28;20518;-60
2022/02/20 01:22:51;;;;;;;8.93;5.30;;;5.20;99.90;;;;;;5093377;28;20461;-59
2022/02/20 01:25:18;;;;;;;8.43;5.30;;;5.20;99.90;;;;;;5076836;28;20551;-60
2022/02/20 01:27:45;;;;;;;8.23;5.17;;;5.20;99.90;;;;;;5077293;28;20802;-59
2022/02/20 01:30:12;;;;;;;6.37;5.03;;;5.10;99.90;;;;;;5077809;28;20518;-60
2022/02/20 01:32:40;;;;;;;6.00;5.33;;;5.10;99.90;;;;;;5077456;28;20494;-60
2022/02/20 01:35:09;;;;;;;16.83;6.03;;;5.10;99.90;;;;;;5077525;28;20519;-60
2022/02/20 01:37:36;;;;;;;9.57;5.43;;;5.00;99.90;;;;;;5076979;28;20461;-59
2022/02/20 01:40:04;;;;;;;13.30;5.77;;;5.00;99.90;;;;;;5078043;28;20461;-60
2022/02/20 01:42:31;;;;;;;9.10;5.40;;;5.00;99.90;;;;;;5076824;28;20435;-59
2022/02/20 01:44:58;;;;;;;11.10;6.03;;;4.90;99.90;;;;;;5077846;28;20465;-60
2022/02/20 01:47:26;;;;;;;12.63;5.83;;;4.90;99.90;;;;;;5076890;28;20926;-60
2022/02/20 01:49:56;;;;;;;13.80;4.73;;;4.90;99.90;;;;;;5077934;28;20465;-61
2022/02/20 01:52:25;;;;;;;10.83;5.73;;;4.80;99.90;;;;;;5077060;28;20435;-61
2022/02/20 01:54:55;;;;;;;6.13;4.40;;;4.70;99.90;;;;;;5077730;28;20465;-61
2022/02/20 01:57:22;;;;;;;6.13;4.80;;;4.70;99.90;;;;;;5074103;28;20465;-60
2022/02/20 01:59:50;;;;;;;5.90;4.80;;;4.70;99.90;;;;;;5077103;28;20489;-60
2022/02/20 02:02:19;;;;;;;8.27;4.80;;;4.70;99.90;;;;;;5066331;28;20493;-61
2022/02/20 02:04:47;;;;;;;9.40;5.17;;;4.60;99.90;;;;;;5076771;28;20460;-60
2022/02/20 02:07:15;;;;;;;5.90;3.83;;;4.60;99.90;;;;;;5077125;28;20528;-61
2022/02/20 02:09:43;;;;;;;5.73;3.83;;;4.60;99.90;;;;;;5076581;28;20567;-61
2022/02/20 02:12:11;;;;;;;7.27;4.20;;;4.60;99.90;;;;;;5077003;28;20560;-61
2022/02/20 02:14:58;;;;;;;10.57;5.13;;;4.60;99.90;;;;;;5077338;28;20472;-61
2022/02/20 02:17:26;;;;;;;5.33;3.40;;;4.60;99.90;;;;;;5077089;28;20518;-60
2022/02/20 02:19:53;;;;;;;7.33;4.17;;;4.60;99.90;;;;;;5077004;28;20544;-61
2022/02/20 02:22:22;;;;;;;10.07;4.17;;;4.60;99.90;;;;;;5075952;28;20515;-60
2022/02/20 02:24:51;;;;;;;6.27;4.20;;;4.50;99.90;;;;;;5077478;28;20488;-61
2022/02/20 02:27:18;;;;;;;10.40;4.70;;;4.50;99.90;;;;;;5076266;28;20558;-61
2022/02/20 02:29:47;;;;;;;8.83;4.70;;;4.50;99.90;;;;;;5077031;28;20496;-61
2022/02/20 02:32:15;;;;;;;6.60;4.10;;;4.60;99.90;;;;;;5076714;28;20879;-59
2022/02/20 02:34:44;;;;;;;9.60;4.93;;;4.60;99.90;;;;;;5077053;28;20754;-61
2022/02/20 02:37:12;;;;;;;13.57;4.50;;;4.60;99.90;;;;;;5078625;28;20791;-61
2022/02/20 02:39:41;;;;;;;9.90;4.80;;;4.50;99.90;;;;;;5080584;28;20436;-61
2022/02/20 02:42:10;;;;;;;7.97;5.33;;;4.50;99.90;;;;;;5080191;28;20462;-61
2022/02/20 02:44:37;;;;;;;6.50;4.30;;;4.50;99.90;;;;;;5080299;28;20469;-61
2022/02/20 02:47:08;;;;;;;8.60;4.50;;;4.50;99.90;;;;;;5079963;28;20493;-61
2022/02/20 02:49:35;;;;;;;6.53;3.73;;;4.50;99.90;;;;;;5080356;28;20780;-61
2022/02/20 02:52:02;;;;;;;8.10;4.73;;;4.50;99.90;;;;;;5079431;28;20772;-61
2022/02/20 02:54:29;;;;;;;9.93;5.23;;;4.50;99.90;;;;;;5077103;28;20746;-62
2022/02/20 02:56:58;;;;;;;6.17;3.83;;;4.50;99.90;;;;;;5079379;28;20511;-62
2022/02/20 02:59:26;;;;;;;11.60;4.80;;;4.50;99.90;;;;;;5080146;28;20485;-62
2022/02/20 03:01:54;;;;;;;12.60;4.10;;;4.50;99.90;;;;;;5080074;28;20465;-61
2022/02/20 03:04:21;;;;;;;10.97;4.03;;;4.50;99.90;;;;;;5079649;28;20473;-61
2022/02/20 03:06:48;;;;;;;6.47;4.00;;;4.50;99.90;;;;;;5079269;28;20493;-62
2022/02/20 03:09:15;;;;;;;8.57;4.40;;;4.40;99.90;;;;;;5080284;28;20461;-61
2022/02/20 03:11:42;;;;;;;7.13;4.20;;;4.50;99.90;;;;;;5079951;28;20823;-61
2022/02/20 03:14:12;;;;;;;9.07;4.23;;;4.50;99.90;;;;;;5078283;28;20491;-61
2022/02/20 03:16:39;;;;;;;7.93;3.90;;;4.50;99.90;;;;;;5077786;28;20461;-61
2022/02/20 03:19:07;;;;;;;6.60;3.60;;;4.50;99.90;;;;;;5078045;28;20515;-62
2022/02/20 03:21:34;;;;;;;7.53;4.07;;;4.40;99.90;;;;;;5059154;28;20924;-61
2022/02/20 03:24:01;;;;;;;9.80;4.10;;;4.40;99.90;;;;;;5064586;28;20465;-61
2022/02/20 03:26:28;;;;;;;6.00;3.60;;;4.40;99.90;;;;;;5079414;28;20610;-61
2022/02/20 03:28:55;;;;;;;8.00;3.53;;;4.40;99.90;;;;;;5078998;28;20737;-60
2022/02/20 03:31:23;;;;;;;7.33;3.77;;;4.40;1.00;;;;;;5078211;28;20586;-62
2022/02/20 03:33:50;;;;;;;5.07;3.57;;;4.40;99.90;;;;;;5077517;28;20826;-61
2022/02/20 03:36:17;;;;;;;4.57;2.80;;;4.40;99.90;;;;;;5058622;28;20663;-61
2022/02/20 03:38:44;;;;;;;6.87;3.70;;;4.40;99.90;;;;;;5062718;28;20523;-61
2022/02/20 03:41:12;;;;;;;6.33;3.67;;;4.30;99.90;;;;;;5078770;28;20519;-61
2022/02/20 03:43:39;;;;;;;7.23;3.63;;;4.40;99.90;;;;;;5078485;28;20511;-61
2022/02/20 03:46:06;;;;;;;6.23;3.90;;;4.40;99.90;;;;;;5078286;28;20554;-61
2022/02/20 03:48:34;;;;;;;5.50;3.90;;;4.40;99.90;;;;;;5077714;28;20466;-61
2022/02/20 03:51:02;;;;;;;10.13;3.70;;;4.40;99.90;;;;;;5078694;28;20480;-61
2022/02/20 03:53:29;;;;;;;4.37;3.33;;;4.40;99.90;;;;;;5078904;28;20509;-62
2022/02/20 03:55:56;;;;;;;7.37;3.83;;;4.30;99.90;;;;;;5078392;28;20484;-61
2022/02/20 03:58:23;;;;;;;8.13;3.67;;;4.30;99.90;;;;;;5078479;28;20493;-61
2022/02/20 04:00:50;;;;;;;10.73;3.57;;;4.40;99.90;;;;;;5078797;28;20474;-61
2022/02/20 04:03:18;;;;;;;12.87;4.33;;;4.30;99.90;;;;;;5078849;28;20812;-61
2022/02/20 04:05:46;;;;;;;6.00;3.80;;;4.30;99.90;;;;;;5078551;28;20465;-61
2022/02/20 04:08:13;;;;;;;4.80;3.33;;;4.20;99.90;;;;;;5078091;28;20464;-61
2022/02/20 04:10:40;;;;;;;7.20;3.50;;;4.20;99.90;;;;;;5078254;28;20489;-61
2022/02/20 04:13:07;;;;;;;6.17;3.80;;;4.20;99.90;;;;;;5078739;28;20443;-62
2022/02/20 04:15:35;;;;;;;9.17;4.10;;;4.20;99.90;;;;;;5078640;28;20510;-61
2022/02/20 04:18:02;;;;;;;8.00;4.07;;;4.20;99.90;;;;;;5078096;28;20913;-61
2022/02/20 04:20:29;;;;;;;9.40;3.63;;;4.30;99.90;;;;;;5084913;28;20515;-61
2022/02/20 04:22:57;;;;;;;8.90;3.80;;;4.30;99.90;;;;;;5078374;28;20440;-61
2022/02/20 04:25:27;;;;;;;6.00;3.40;;;4.30;99.90;;;;;;5078384;28;20518;-60
2022/02/20 04:27:54;;;;;;;6.00;3.90;;;4.30;99.90;;;;;;5077396;28;20511;-61
2022/02/20 04:30:21;;;;;;;10.07;3.80;;;4.30;99.90;;;;;;5077688;28;20519;-61
2022/02/20 04:32:48;;;;;;;8.80;4.30;;;4.30;99.90;;;;;;5077249;28;20440;-62
2022/02/20 04:35:15;;;;;;;8.33;3.93;;;4.30;99.90;;;;;;5078103;28;20465;-60
2022/02/20 04:37:42;;;;;;;6.40;3.13;;;4.30;99.90;;;;;;5077519;28;20865;-60
2022/02/20 04:40:12;;;;;;;6.90;4.00;;;4.30;99.90;;;;;;5078060;28;20491;-60
2022/02/20 04:42:39;;;;;;;6.00;4.70;;;4.30;99.90;;;;;;5077645;28;20461;-60
2022/02/20 04:45:07;;;;;;;9.10;4.30;;;4.30;99.90;;;;;;5077675;28;20461;-61
2022/02/20 04:47:34;;;;;;;5.30;4.73;;;4.20;99.90;;;;;;5075511;28;20934;-61
2022/02/20 04:50:01;;;;;;;6.00;4.90;;;4.30;99.90;;;;;;5077494;28;20469;-59
2022/02/20 04:52:28;;;;;;;6.50;4.50;;;4.20;99.90;;;;;;5077337;28;20465;-58
2022/02/20 04:54:55;;;;;;;9.17;5.37;;;4.20;99.90;;;;;;5077460;28;20461;-61
2022/02/20 04:57:23;;;;;;;10.97;4.60;;;4.20;99.90;;;;;;5077311;28;20453;-61
2022/02/20 04:59:55;;;;;;;15.17;5.70;;;4.10;99.90;;;;;;5075896;28;20551;-59
2022/02/20 05:02:22;;;;;;;6.50;5.13;;;4.20;99.90;;;;;;5073431;28;20462;-61
2022/02/20 05:04:50;;;;;;;13.50;6.23;;;4.10;99.90;;;;;;5057599;28;20967;-61
2022/02/20 05:07:17;;;;;;;9.53;5.03;;;4.10;1.00;;;;;;5057676;28;20802;-58
2022/02/20 05:09:44;;;;;;;11.30;4.67;;;4.10;1.00;;;;;;5068879;28;20462;-61
2022/02/20 05:12:11;;;;;;;10.20;5.83;;;4.10;1.00;;;;;;5077730;28;20518;-60
2022/02/20 05:14:39;;;;;;;8.57;5.50;;;4.10;1.00;;;;;;5058187;28;20511;-60
2022/02/20 05:17:06;;;;;;;8.80;5.53;;;4.10;1.00;;;;;;5057128;28;20516;-58
2022/02/20 05:19:33;;;;;;;6.97;5.00;;;4.10;1.00;;;;;;5063633;28;20521;-60
2022/02/20 05:22:00;;;;;;;9.50;5.43;;;4.20;1.00;;;;;;5097803;28;20460;-60
2022/02/20 05:24:27;;;;;;;9.70;5.90;;;4.20;1.00;;;;;;5082704;28;20519;-60
2022/02/20 05:26:54;;;;;;;11.53;6.17;;;4.20;1.00;;;;;;5076614;28;20988;-60
2022/02/20 05:29:22;;;;;;;10.60;5.60;;;4.20;1.00;;;;;;5075998;28;20481;-59
2022/02/20 05:31:50;;;;;;;9.77;6.60;;;4.20;1.00;;;;;;5077211;28;20465;-61
2022/02/20 05:34:17;;;;;;;7.63;5.87;;;4.20;1.00;;;;;;5075521;28;20463;-60
2022/02/20 05:36:46;;;;;;;10.70;6.00;;;4.20;1.00;;;;;;5076694;28;20509;-60
2022/02/20 05:39:13;;;;;;;9.07;5.63;;;4.20;1.00;;;;;;5076158;28;20461;-61
2022/02/20 05:41:40;;;;;;;9.20;6.20;;;4.10;1.00;;;;;;5064728;28;20466;-61
2022/02/20 05:44:07;;;;;;;14.20;6.20;;;4.20;1.00;;;;;;5058019;28;20466;-61
2022/02/20 05:46:34;;;;;;;10.70;6.47;;;4.20;1.00;;;;;;5076635;28;20514;-59
2022/02/20 05:49:04;;;;;;;7.33;5.53;;;4.10;1.00;;;;;;5076453;28;20514;-60
2022/02/20 05:51:31;;;;;;;10.00;6.13;;;4.10;91.40;;;;;;5075807;28;20544;-61
2022/02/20 05:53:58;;;;;;;11.70;7.07;;;4.10;99.90;;;;;;5077301;28;20435;-62
2022/02/20 05:56:25;;;;;;;13.13;7.17;;;4.10;99.90;;;;;;5066035;28;20458;-60
2022/02/20 05:58:52;;;;;;;8.90;6.80;;;4.10;1.00;;;;;;5057636;28;20485;-60
2022/02/20 06:01:19;;;;;;;14.30;7.67;;;4.10;1.00;;;;;;5076966;28;20741;-61
2022/02/20 06:03:46;;;;;;;13.00;7.80;;;4.00;1.00;;;;;;5056504;28;20433;-59
2022/02/20 06:06:15;;;;;;;12.30;8.50;;;4.00;1.00;;;;;;5063251;28;20458;-56
2022/02/20 06:08:42;;;;;;;11.80;7.53;;;4.00;99.90;;;;;;5056677;28;20502;-60
2022/02/20 06:11:09;;;;;;;12.30;8.83;;;4.00;1.00;;;;;;5073123;28;20461;-60
2022/02/20 06:13:36;;;;;;;11.00;8.10;;;4.00;1.00;;;;;;5079004;28;20794;-61
2022/02/20 06:16:03;;;;;;;15.13;8.80;;;4.00;99.90;;;;;;5080568;28;20951;-61
2022/02/20 06:18:30;;;;;;;12.80;8.60;;;4.00;1.00;;;;;;5061300;28;20461;-61
2022/02/20 06:20:57;;;;;;;17.30;7.90;;;4.00;1.00;;;;;;5072211;28;20829;-61
2022/02/20 06:23:32;;;;;;;11.27;8.37;;;4.10;1.00;;;;;;5072885;28;20473;-62
2022/02/20 06:26:00;;;;;;;14.27;7.50;;;4.10;87.70;;;;;;5061877;28;20816;-62
2022/02/20 06:28:30;;;;;;;15.90;8.07;;;4.10;99.90;;;;;;5080950;28;20510;-62
2022/02/20 06:30:57;;;;;;;14.60;8.90;;;4.10;99.90;;;;;;5080996;28;20980;-62
2022/02/20 06:33:24;;;;;;;16.20;8.87;;;4.20;99.90;;;;;;5080460;28;20867;-62
2022/02/20 06:35:51;;;;;;;13.27;8.97;;;4.10;99.90;;;;;;5076219;28;20471;-62
2022/02/20 06:38:18;;;;;;;12.93;8.07;;;4.20;99.90;;;;;;5079516;28;20738;-63
2022/02/20 06:40:47;;;;;;;14.40;8.70;;;4.20;99.90;;;;;;5079679;28;20461;-62
2022/02/20 06:43:15;;;;;;;15.97;9.10;;;4.20;99.90;;;;;;5081505;28;20465;-62
2022/02/20 06:45:42;;;;;;;16.53;9.63;;;4.30;99.90;;;;;;5081004;28;20805;-62
2022/02/20 06:48:09;;;;;;;21.43;9.70;;;4.30;99.90;;;;;;5078978;28;20485;-62
2022/02/20 06:50:36;;;;;;;17.50;9.10;;;4.40;99.90;;;;;;5080036;28;20465;-63
2022/02/20 06:53:05;;;;;;;20.93;12.20;;;4.40;99.90;;;;;;5079159;28;20954;-63
2022/02/20 06:55:32;;;;;;;28.53;15.67;;;4.40;99.90;;;;;;5079910;28;20516;-61
2022/02/20 06:58:01;;;;;;;16.40;10.87;;;4.50;99.90;;;;;;5077514;28;20486;-61
2022/02/20 07:00:28;;;;;;;13.70;9.13;;;4.50;99.90;;;;;;5079623;28;20457;-60
2022/02/20 07:02:55;;;;;;;16.00;7.97;;;4.60;99.90;;;;;;5067564;28;20475;-61
2022/02/20 07:05:23;;;;;;;25.93;9.23;;;4.60;99.90;;;;;;5079906;28;20465;-61
2022/02/20 07:07:50;;;;;;;20.40;11.33;;;4.70;99.90;;;;;;5078843;28;20493;-61
2022/02/20 07:10:17;;;;;;;28.73;12.60;;;4.70;99.90;;;;;;5076533;28;20821;-61
2022/02/20 07:12:44;;;;;;;26.67;10.60;;;4.80;99.90;;;;;;5078816;28;20453;-60
2022/02/20 07:15:12;;;;;;;19.40;9.10;;;4.80;99.90;;;;;;5078373;28;20449;-60
2022/02/20 07:17:39;;;;;;;15.07;7.07;;;4.90;99.90;;;;;;5079920;28;20454;-60
2022/02/20 07:20:07;;;;;;;14.90;7.70;;;4.90;99.90;;;;;;5084330;28;20453;-61
2022/02/20 07:22:35;;;;;;;21.17;8.43;;;5.00;99.90;;;;;;5079107;28;20523;-61
2022/02/20 07:25:03;;;;;;;19.60;8.17;;;5.00;99.90;;;;;;5079486;28;20468;-61
2022/02/20 07:27:38;;;;;;;16.77;6.97;;;5.00;99.90;;;;;;5079366;28;20485;-61
2022/02/20 07:30:05;;;;;;;21.50;7.87;;;5.10;99.90;;;;;;5076309;28;20473;-62
2022/02/20 07:32:34;;;;;;;14.00;7.77;;;5.10;99.90;;;;;;5076770;28;20735;-61
2022/02/20 07:35:01;;;;;;;24.20;7.00;;;5.20;99.90;;;;;;5076691;28;20484;-60
2022/02/20 07:37:29;;;;;;;14.10;6.80;;;5.30;99.90;;;;;;5079086;28;20822;-61
2022/02/20 07:39:56;;;;;;;13.40;5.87;;;5.30;99.90;;;;;;5078667;28;20472;-61
2022/02/20 07:42:23;;;;;;;15.83;6.60;;;5.30;99.90;;;;;;5079411;28;20526;-61
2022/02/20 07:44:51;;;;;;;13.33;6.10;;;5.40;99.90;;;;;;5078800;28;20770;-61
2022/02/20 07:47:18;;;;;;;18.50;6.50;;;5.40;99.90;;;;;;5079362;28;20464;-61
2022/02/20 07:49:47;;;;;;;10.40;4.50;;;5.50;99.90;;;;;;5079372;28;20713;-61
2022/02/20 07:52:14;;;;;;;12.13;5.17;;;5.60;99.90;;;;;;5079857;28;20804;-61
2022/02/20 07:54:42;;;;;;;17.47;5.30;;;5.60;99.90;;;;;;5078943;28;20519;-59
2022/02/20 07:57:09;;;;;;;9.90;5.20;;;5.70;99.90;;;;;;5078898;28;20503;-60
2022/02/20 07:59:37;;;;;;;10.07;5.10;;;5.80;99.90;;;;;;5079140;28;20542;-60
2022/02/20 08:02:05;;;;;;;11.93;6.00;;;5.80;99.90;;;;;;5062921;28;20470;-60
2022/02/20 08:04:32;;;;;;;8.70;4.23;;;5.90;99.90;;;;;;5064444;28;20448;-60
2022/02/20 08:07:04;;;;;;;10.17;5.30;;;6.10;99.90;;;;;;5058791;28;20466;-60
2022/02/20 08:09:31;;;;;;;10.87;4.87;;;6.20;99.90;;;;;;5059725;28;20455;-61
2022/02/20 08:11:58;;;;;;;13.23;6.13;;;6.20;99.90;;;;;;5069636;28;20462;-61
2022/02/20 08:14:27;;;;;;;8.33;4.97;;;6.20;99.90;;;;;;5067549;28;20461;-60
2022/02/20 08:16:57;;;;;;;13.13;5.20;;;6.30;99.90;;;;;;5078142;28;20466;-60
2022/02/20 08:19:24;;;;;;;16.83;6.00;;;6.30;99.90;;;;;;5081940;28;20462;-61
2022/02/20 08:21:51;;;;;;;12.27;4.20;;;6.30;99.90;;;;;;5091382;28;20462;-61
2022/02/20 08:24:20;;;;;;;15.60;4.83;;;6.30;99.90;;;;;;5078356;28;20458;-61
2022/02/20 08:26:47;;;;;;;7.50;3.97;;;6.30;99.90;;;;;;5078522;28;20461;-61
2022/02/20 08:29:19;;;;;;;10.30;4.53;;;6.40;99.90;;;;;;5078706;28;20693;-59
2022/02/20 08:31:46;;;;;;;10.10;5.00;;;6.40;99.90;;;;;;5078409;28;20450;-60
2022/02/20 08:34:13;;;;;;;7.70;4.47;;;6.40;99.90;;;;;;5078094;28;20453;-59
2022/02/20 08:36:40;;;;;;;9.30;4.50;;;6.40;99.90;;;;;;5077807;28;20462;-60
2022/02/20 08:39:07;;;;;;;9.57;5.17;;;6.50;99.90;;;;;;5078308;28;20461;-59
2022/02/20 08:41:36;;;;;;;6.73;4.30;;;6.50;99.90;;;;;;5078766;28;20767;-59
2022/02/20 08:44:04;;;;;;;9.37;3.80;;;6.60;99.90;;;;;;5077838;28;20468;-60
2022/02/20 08:46:31;;;;;;;11.70;4.80;;;6.60;99.90;;;;;;5078044;28;20485;-60
2022/02/20 08:48:58;;;;;;;10.20;5.50;;;6.60;99.90;;;;;;5078114;28;20497;-59
2022/02/20 08:51:25;;;;;;;6.80;4.27;;;6.70;99.90;;;;;;5078618;28;20519;-57
2022/02/20 08:53:52;;;;;;;10.90;5.10;;;6.70;99.90;;;;;;5072084;28;20469;-59
2022/02/20 08:56:26;;;;;;;6.87;4.80;;;6.70;99.90;;;;;;5075846;28;20862;-58
2022/02/20 08:58:55;;;;;;;12.60;7.00;;;6.80;99.90;;;;;;5078143;28;20493;-59
2022/02/20 09:01:24;;;;;;;9.93;5.40;;;6.80;99.90;;;;;;5070100;28;20466;-60
2022/02/20 09:03:58;;;;;;;9.50;5.70;;;6.90;99.90;;;;;;5067908;28;20479;-59
2022/02/20 09:06:25;;;;;;;10.70;5.30;;;6.90;99.90;;;;;;5077861;28;20465;-58
2022/02/20 09:08:52;;;;;;;6.23;5.67;;;7.00;99.90;;;;;;5075107;28;20496;-59
2022/02/20 09:11:20;;;;;;;13.37;6.17;;;7.10;99.90;;;;;;5075953;28;20467;-59
2022/02/20 09:13:47;;;;;;;13.07;6.67;;;7.10;99.90;;;;;;5076377;28;20881;-59
2022/02/20 09:16:17;;;;;;;7.00;6.20;;;7.20;99.90;;;;;;5077349;28;20469;-59
2022/02/20 09:18:44;;;;;;;10.73;9.07;;;7.20;99.90;;;;;;5077425;28;20767;-59
2022/02/20 09:21:12;;;;;;;16.40;9.20;;;7.30;99.90;;;;;;5094872;28;20890;-60
2022/02/20 09:23:39;;;;;;;12.33;8.00;;;7.30;99.90;;;;;;5084449;28;20770;-60
2022/02/20 09:26:06;;;;;;;9.23;6.60;;;7.40;99.90;;;;;;5076009;28;20487;-59
2022/02/20 09:28:36;;;;;;;9.53;7.63;;;7.40;99.90;;;;;;5076773;28;20489;-56
2022/02/20 09:31:04;;;;;;;15.30;8.17;;;7.50;99.90;;;;;;5075624;28;20458;-59
2022/02/20 09:33:34;;;;;;;7.77;6.77;;;7.50;99.90;;;;;;5077187;28;20464;-60
2022/02/20 09:36:01;;;;;;;12.33;5.10;;;7.60;99.90;;;;;;5076536;28;20898;-60
2022/02/20 09:38:29;;;;;;;6.90;4.53;;;7.60;99.90;;;;;;5077425;28;20457;-59
2022/02/20 09:40:56;;;;;;;7.40;4.33;;;7.70;99.90;;;;;;5076669;28;20518;-59
2022/02/20 09:43:24;;;;;;;8.13;4.53;;;7.70;99.90;;;;;;5077518;28;20466;-58
2022/02/20 09:45:52;;;;;;;5.47;4.00;;;7.70;99.90;;;;;;5077836;28;20807;-59
2022/02/20 09:48:19;;;;;;;5.17;3.93;;;7.80;99.90;;;;;;5081188;28;20528;-60
2022/02/20 09:50:47;;;;;;;7.23;4.10;;;7.80;99.90;;;;;;5081239;28;20465;-61
2022/02/20 09:53:15;;;;;;;6.20;4.53;;;7.80;99.90;;;;;;5072103;28;20470;-62
2022/02/20 09:55:45;;;;;;;9.27;4.13;;;7.90;99.90;;;;;;5071428;28;20815;-62
2022/02/20 09:58:15;;;;;;;5.27;4.60;;;7.90;99.90;;;;;;5072490;28;20933;-61
2022/02/20 10:00:53;;;;;;;4.93;3.90;;;7.90;99.90;;;;;;5068979;28;20539;-61
2022/02/20 10:03:31;;;;;;;7.67;3.43;;;7.90;99.90;;;;;;5073888;28;20465;-62
2022/02/20 10:06:01;;;;;;;12.67;3.70;;;8.00;99.90;;;;;;5077925;28;20465;-62
2022/02/20 10:08:28;;;;;;;4.77;3.33;;;8.00;99.90;;;;;;5072275;28;20920;-61
2022/02/20 10:11:13;;;;;;;6.47;3.13;;;8.00;99.90;;;;;;5071371;28;20758;-58
2022/02/20 10:13:40;;;;;;;4.57;3.07;;;8.00;99.90;;;;;;5075060;28;20465;-60
2022/02/20 10:16:21;;;;;;;5.70;3.40;;;8.00;99.90;;;;;;5079049;28;20478;-61
2022/02/20 10:18:49;;;;;;;6.03;2.17;;;8.10;99.90;;;;;;5079668;28;20468;-60
2022/02/20 10:21:19;;;;;;;4.60;2.43;;;8.00;99.90;;;;;;5072108;28;20476;-60
2022/02/20 10:23:47;;;;;;;6.10;2.70;;;8.00;99.90;;;;;;5076110;28;20477;-61
2022/02/20 10:26:19;;;;;;;4.47;2.70;;;8.00;99.90;;;;;;5071238;28;21030;-58
2022/02/20 10:29:08;;;;;;;2.50;2.10;;;8.10;99.90;;;;;;5060317;28;20513;-60
2022/02/20 10:31:43;;;;;;;6.20;2.60;;;8.10;99.90;;;;;;5062544;28;20461;-62
2022/02/20 10:34:12;;;;;;;3.20;2.50;;;8.10;99.90;;;;;;5069310;28;20468;-60
2022/02/20 10:36:48;;;;;;;3.30;2.70;;;8.20;99.90;;;;;;5073418;28;20896;-60
2022/02/20 10:39:23;;;;;;;8.50;3.63;;;8.10;99.90;;;;;;5065836;28;20527;-58
2022/02/20 10:41:54;;;;;;;4.80;3.00;;;8.20;99.90;;;;;;5074485;28;20814;-59
2022/02/20 10:44:22;;;;;;;7.90;3.00;;;8.20;99.90;;;;;;5078888;28;20461;-61
2022/02/20 10:47:07;;;;;;;6.23;3.37;;;8.30;99.90;;;;;;5072202;28;20465;-60
2022/02/20 10:49:39;;;;;;;6.83;2.70;;;8.30;99.90;;;;;;5079452;28;20550;-61
2022/02/20 10:52:24;;;;;;;6.03;3.27;;;8.30;99.90;;;;;;5076030;28;20487;-62
2022/02/20 10:55:03;;;;;;;7.50;2.80;;;8.40;99.90;;;;;;5078315;28;20457;-62
2022/02/20 10:57:34;;;;;;;7.37;3.10;;;8.40;99.90;;;;;;5078869;28;20921;-61
2022/02/20 11:00:10;;;;;;;5.33;3.20;;;8.40;99.90;;;;;;5079625;28;20473;-60
2022/02/20 11:02:37;;;;;;;6.80;2.60;;;8.50;99.90;;;;;;5078688;28;20461;-61
2022/02/20 11:05:06;;;;;;;9.23;3.87;;;8.50;99.90;;;;;;5079486;28;20439;-61
2022/02/20 11:07:37;;;;;;;8.03;3.10;;;8.60;99.90;;;;;;5079361;28;20465;-59
2022/02/20 11:10:07;;;;;;;5.50;3.00;;;8.70;99.90;;;;;;5078463;28;20497;-60
2022/02/20 11:12:36;;;;;;;4.40;3.13;;;8.70;99.90;;;;;;5078259;28;20765;-60
2022/02/20 11:15:04;;;;;;;5.77;2.27;;;8.70;99.90;;;;;;5075960;28;20511;-61
2022/02/20 11:17:33;;;;;;;7.33;2.93;;;8.70;99.90;;;;;;5067881;28;20453;-61
2022/02/20 11:20:03;;;;;;;10.70;3.17;;;8.80;99.90;;;;;;5065845;28;20455;-60
2022/02/20 11:22:36;;;;;;;8.13;3.70;;;8.80;99.90;;;;;;5069618;28;20508;-60
2022/02/20 11:25:09;;;;;;;10.50;2.50;;;8.70;99.90;;;;;;5069679;28;20540;-59
2022/02/20 11:27:43;;;;;;;9.70;3.63;;;8.80;99.90;;;;;;5069818;28;20552;-61
2022/02/20 11:30:11;;;;;;;11.20;3.30;;;8.80;99.90;;;;;;5075976;28;20491;-60
2022/02/20 11:32:40;;;;;;;4.70;2.73;;;8.70;99.90;;;;;;5072182;28;20475;-60
2022/02/20 11:35:09;;;;;;;10.27;3.30;;;8.80;99.90;;;;;;5079714;28;20497;-59
2022/02/20 11:37:52;;;;;;;5.10;2.77;;;8.70;99.90;;;;;;5073947;28;20461;-60
2022/02/20 11:40:21;;;;;;;10.67;2.90;;;8.80;99.90;;;;;;5079012;28;21085;-59
2022/02/20 11:43:07;;;;;;;6.70;3.07;;;8.80;99.90;;;;;;5067247;28;20477;-61
2022/02/20 11:45:39;;;;;;;10.90;3.03;;;8.90;99.90;;;;;;5071260;28;20820;-60
2022/02/20 11:48:08;;;;;;;10.17;3.40;;;8.80;99.90;;;;;;5066825;28;20498;-60
2022/02/20 11:50:38;;;;;;;7.30;2.77;;;8.80;99.90;;;;;;5069403;28;20490;-60
2022/02/20 11:53:09;;;;;;;4.70;3.47;;;8.80;99.90;;;;;;5068231;28;20821;-61
2022/02/20 11:55:39;;;;;;;6.23;2.93;;;8.70;99.90;;;;;;5064604;28;20457;-61
2022/02/20 11:58:25;;;;;;;5.53;3.30;;;8.70;99.90;;;;;;5061988;28;20466;-61
2022/02/20 12:01:13;;;;;;;9.77;3.30;;;8.80;99.90;;;;;;5067750;28;20494;-61
2022/02/20 12:04:07;;;;;;;7.73;3.20;;;8.80;99.90;;;;;;5073600;28;20469;-60
2022/02/20 12:06:42;;;;;;;4.63;3.00;;;8.70;99.90;;;;;;5034732;28;20910;-60
2022/02/20 12:09:29;;;;;;;5.50;2.77;;;8.70;99.90;;;;;;5062165;28;20570;-60
2022/02/20 12:11:56;;;;;;;6.07;2.97;;;8.70;99.90;;;;;;5068623;28;20461;-59
2022/02/20 12:14:30;;;;;;;6.80;3.70;;;8.70;99.90;;;;;;5068062;28;20461;-59
2022/02/20 12:17:00;;;;;;;6.60;3.20;;;8.70;99.90;;;;;;5073745;28;20824;-58
2022/02/20 12:19:39;;;;;;;5.03;3.03;;;8.70;99.90;;;;;;5072820;28;20503;-60
2022/02/20 12:22:15;;;;;;;6.47;3.80;;;8.80;99.90;;;;;;5076863;28;20854;-61
2022/02/20 12:24:56;;;;;;;13.80;3.27;;;8.80;99.90;;;;;;5067034;28;20833;-57
2022/02/20 12:27:27;;;;;;;13.43;3.53;;;8.80;99.90;;;;;;5066113;28;20819;-59
2022/02/20 12:30:02;;;;;;;8.80;3.20;;;8.90;99.90;;;;;;5068639;28;20486;-60
2022/02/20 12:32:31;;;;;;;9.13;3.33;;;8.90;99.90;;;;;;5071613;28;20885;-59
2022/02/20 12:35:02;;;;;;;6.77;3.07;;;9.00;99.90;;;;;;5066863;28;22550;-60
2022/02/20 12:37:31;;;;;;;11.40;4.47;;;9.00;99.90;;;;;;5075745;28;20465;-60
2022/02/20 12:40:04;;;;;;;4.90;3.03;;;8.90;99.90;;;;;;5074122;28;20504;-58
2022/02/20 12:42:32;;;;;;;7.80;3.60;;;8.90;99.90;;;;;;5062013;28;20779;-59
2022/02/20 12:45:13;;;;;;;8.87;3.57;;;8.90;99.90;;;;;;5070045;28;20855;-59
2022/02/20 12:47:44;;;;;;;10.70;4.70;;;8.90;99.90;;;;;;5074059;28;20462;-60
2022/02/20 12:50:16;;;;;;;14.17;4.20;;;8.90;99.90;;;;;;5071683;28;20477;-61
2022/02/20 12:52:44;;;;;;;7.37;3.70;;;9.00;99.90;;;;;;5069081;28;20888;-61
2022/02/20 12:55:15;;;;;;;10.17;4.07;;;8.90;99.90;;;;;;5066952;28;20519;-61
2022/02/20 12:57:45;;;;;;;9.23;3.93;;;8.90;99.90;;;;;;5071646;28;20457;-61
2022/02/20 13:00:14;;;;;;;6.50;3.77;;;8.90;99.90;;;;;;5074410;28;20485;-61
2022/02/20 13:02:46;;;;;;;6.30;3.77;;;8.90;99.90;;;;;;5076921;28;20893;-60